sensor_id;sensor_type;location;lat;lon;timestamp;temperature;humidity
23499;DHT22;11926;48.120;11.562;2022-09-27T00:00:59;12.90;89.60
23499;DHT22;11926;48.120;11.562;2022-09-27T00:03:47;12.90;90.00
23499;DHT22;11926;48.120;11.562;2022-09-27T00:06:35;12.90;90.00
23499;DHT22;11926;48.120;11.562;2022-09-27T00:09:26;12.90;90.30
23499;DHT22;11926;48.120;11.562;2022-09-27T00:12:14;12.90;90.30
23499;DHT22;11926;48.120;11.562;2022-09-27T00:15:05;12.90;90.50
23499;DHT22;11926;48.120;11.562;2022-09-27T00:17:56;12.90;90.60
23499;DHT22;11926;48.120;11.562;2022-09-27T00:20:44;12.90;90.80
23499;DHT22;11926;48.120;11.562;2022-09-27T00:23:34;12.90;90.90
23499;DHT22;11926;48.120;11.562;2022-09-27T00:26:22;12.90;91.10
23499;DHT22;11926;48.120;11.562;2022-09-27T00:29:16;12.90;91.20
23499;DHT22;11926;48.120;11.562;2022-09-27T00:32:08;12.90;91.30
23499;DHT22;11926;48.120;11.562;2022-09-27T00:35:01;12.90;91.40
23499;DHT22;11926;48.120;11.562;2022-09-27T00:37:52;12.90;91.50
23499;DHT22;11926;48.120;11.562;2022-09-27T00:40:41;12.90;91.60
23499;DHT22;11926;48.120;11.562;2022-09-27T00:43:45;12.90;91.90
23499;DHT22;11926;48.120;11.562;2022-09-27T00:46:40;12.90;92.00
23499;DHT22;11926;48.120;11.562;2022-09-27T00:49:39;12.90;92.20
23499;DHT22;11926;48.120;11.562;2022-09-27T00:52:37;12.90;92.30
23499;DHT22;11926;48.120;11.562;2022-09-27T00:55:31;12.80;92.30
23499;DHT22;11926;48.120;11.562;2022-09-27T00:58:22;12.80;92.30
23499;DHT22;11926;48.120;11.562;2022-09-27T01:01:17;12.80;92.30
23499;DHT22;11926;48.120;11.562;2022-09-27T01:04:10;12.70;92.40
23499;DHT22;11926;48.120;11.562;2022-09-27T01:07:01;12.70;92.30
23499;DHT22;11926;48.120;11.562;2022-09-27T01:09:53;12.50;92.20
23499;DHT22;11926;48.120;11.562;2022-09-27T01:12:52;12.60;92.50
23499;DHT22;11926;48.120;11.562;2022-09-27T01:15:51;12.60;92.40
23499;DHT22;11926;48.120;11.562;2022-09-27T01:18:48;12.50;92.50
23499;DHT22;11926;48.120;11.562;2022-09-27T01:21:44;12.50;92.50
23499;DHT22;11926;48.120;11.562;2022-09-27T01:24:55;12.50;92.60
23499;DHT22;11926;48.120;11.562;2022-09-27T01:28:07;12.50;92.60
23499;DHT22;11926;48.120;11.562;2022-09-27T01:31:02;12.40;92.60
23499;DHT22;11926;48.120;11.562;2022-09-27T01:34:06;12.40;92.70
23499;DHT22;11926;48.120;11.562;2022-09-27T01:37:05;12.40;92.90
23499;DHT22;11926;48.120;11.562;2022-09-27T01:40:00;12.40;92.80
23499;DHT22;11926;48.120;11.562;2022-09-27T01:43:16;12.40;92.80
23499;DHT22;11926;48.120;11.562;2022-09-27T01:46:21;12.40;92.90
23499;DHT22;11926;48.120;11.562;2022-09-27T01:49:32;12.40;92.90
23499;DHT22;11926;48.120;11.562;2022-09-27T01:52:26;12.30;93.00
23499;DHT22;11926;48.120;11.562;2022-09-27T01:55:18;12.30;93.00
23499;DHT22;11926;48.120;11.562;2022-09-27T01:58:30;12.30;93.10
23499;DHT22;11926;48.120;11.562;2022-09-27T02:01:27;12.30;93.20
23499;DHT22;11926;48.120;11.562;2022-09-27T02:04:22;12.30;93.20
23499;DHT22;11926;48.120;11.562;2022-09-27T02:07:37;12.20;93.20
23499;DHT22;11926;48.120;11.562;2022-09-27T02:10:32;12.20;93.40
23499;DHT22;11926;48.120;11.562;2022-09-27T02:13:38;12.10;93.40
23499;DHT22;11926;48.120;11.562;2022-09-27T02:16:50;12.10;93.40
23499;DHT22;11926;48.120;11.562;2022-09-27T02:19:53;12.00;93.50
23499;DHT22;11926;48.120;11.562;2022-09-27T02:23:00;12.00;93.60
23499;DHT22;11926;48.120;11.562;2022-09-27T02:25:56;12.00;93.70
23499;DHT22;11926;48.120;11.562;2022-09-27T02:28:56;12.00;93.70
23499;DHT22;11926;48.120;11.562;2022-09-27T02:31:54;12.00;93.80
23499;DHT22;11926;48.120;11.562;2022-09-27T02:34:43;12.00;93.80
23499;DHT22;11926;48.120;11.562;2022-09-27T02:37:31;12.00;93.90
23499;DHT22;11926;48.120;11.562;2022-09-27T02:40:28;12.00;93.90
23499;DHT22;11926;48.120;11.562;2022-09-27T02:43:26;12.00;93.90
23499;DHT22;11926;48.120;11.562;2022-09-27T02:46:30;11.90;94.40
23499;DHT22;11926;48.120;11.562;2022-09-27T02:49:39;11.80;94.20
23499;DHT22;11926;48.120;11.562;2022-09-27T02:53:02;11.80;94.20
23499;DHT22;11926;48.120;11.562;2022-09-27T02:56:08;11.80;94.30
23499;DHT22;11926;48.120;11.562;2022-09-27T02:59:22;11.80;94.30
23499;DHT22;11926;48.120;11.562;2022-09-27T03:02:17;11.80;94.40
23499;DHT22;11926;48.120;11.562;2022-09-27T03:05:10;11.80;94.40
23499;DHT22;11926;48.120;11.562;2022-09-27T03:07:59;11.80;94.50
23499;DHT22;11926;48.120;11.562;2022-09-27T03:10:53;11.80;94.60
23499;DHT22;11926;48.120;11.562;2022-09-27T03:13:42;11.80;94.70
23499;DHT22;11926;48.120;11.562;2022-09-27T03:16:55;11.80;95.10
23499;DHT22;11926;48.120;11.562;2022-09-27T03:20:07;11.80;94.70
23499;DHT22;11926;48.120;11.562;2022-09-27T03:23:17;11.80;94.70
23499;DHT22;11926;48.120;11.562;2022-09-27T03:26:09;11.80;94.80
23499;DHT22;11926;48.120;11.562;2022-09-27T03:29:03;11.80;94.80
23499;DHT22;11926;48.120;11.562;2022-09-27T03:31:51;11.80;94.90
23499;DHT22;11926;48.120;11.562;2022-09-27T03:35:07;11.80;94.90
23499;DHT22;11926;48.120;11.562;2022-09-27T03:37:58;11.80;94.90
23499;DHT22;11926;48.120;11.562;2022-09-27T03:40:50;11.80;94.80
23499;DHT22;11926;48.120;11.562;2022-09-27T03:43:38;11.80;94.90
23499;DHT22;11926;48.120;11.562;2022-09-27T03:46:27;11.90;94.90
23499;DHT22;11926;48.120;11.562;2022-09-27T03:49:15;11.80;94.90
23499;DHT22;11926;48.120;11.562;2022-09-27T03:52:10;11.80;94.90
23499;DHT22;11926;48.120;11.562;2022-09-27T03:54:58;11.90;95.00
23499;DHT22;11926;48.120;11.562;2022-09-27T04:00:58;11.90;95.10
23499;DHT22;11926;48.120;11.562;2022-09-27T04:03:56;11.90;95.00
23499;DHT22;11926;48.120;11.562;2022-09-27T04:06:51;11.90;95.10
23499;DHT22;11926;48.120;11.562;2022-09-27T04:09:41;11.90;95.10
23499;DHT22;11926;48.120;11.562;2022-09-27T04:12:32;11.90;95.10
23499;DHT22;11926;48.120;11.562;2022-09-27T04:15:24;11.90;95.20
23499;DHT22;11926;48.120;11.562;2022-09-27T04:18:32;11.90;95.20
23499;DHT22;11926;48.120;11.562;2022-09-27T04:21:26;11.90;95.20
23499;DHT22;11926;48.120;11.562;2022-09-27T04:24:16;11.80;95.00
23499;DHT22;11926;48.120;11.562;2022-09-27T04:27:08;11.80;95.20
23499;DHT22;11926;48.120;11.562;2022-09-27T04:29:58;11.70;95.10
23499;DHT22;11926;48.120;11.562;2022-09-27T04:33:09;11.70;95.30
23499;DHT22;11926;48.120;11.562;2022-09-27T04:36:02;11.70;95.20
23499;DHT22;11926;48.120;11.562;2022-09-27T04:39:21;11.70;95.20
23499;DHT22;11926;48.120;11.562;2022-09-27T04:42:09;11.80;95.30
23499;DHT22;11926;48.120;11.562;2022-09-27T04:44:57;11.80;95.20
23499;DHT22;11926;48.120;11.562;2022-09-27T04:47:48;11.80;95.20
23499;DHT22;11926;48.120;11.562;2022-09-27T04:50:36;11.80;95.10
23499;DHT22;11926;48.120;11.562;2022-09-27T04:53:24;11.70;95.10
23499;DHT22;11926;48.120;11.562;2022-09-27T04:56:12;11.70;95.20
23499;DHT22;11926;48.120;11.562;2022-09-27T04:59:11;11.70;95.20
23499;DHT22;11926;48.120;11.562;2022-09-27T05:01:59;11.70;95.20
23499;DHT22;11926;48.120;11.562;2022-09-27T05:05:08;11.60;95.20
23499;DHT22;11926;48.120;11.562;2022-09-27T05:07:59;11.60;95.30
23499;DHT22;11926;48.120;11.562;2022-09-27T05:10:47;11.60;95.30
23499;DHT22;11926;48.120;11.562;2022-09-27T05:13:35;11.60;95.30
23499;DHT22;11926;48.120;11.562;2022-09-27T05:16:26;11.60;95.30
23499;DHT22;11926;48.120;11.562;2022-09-27T05:19:39;11.60;95.30
23499;DHT22;11926;48.120;11.562;2022-09-27T05:22:36;11.60;95.30
23499;DHT22;11926;48.120;11.562;2022-09-27T05:25:30;11.60;95.30
23499;DHT22;11926;48.120;11.562;2022-09-27T05:28:21;11.60;95.30
23499;DHT22;11926;48.120;11.562;2022-09-27T05:31:11;11.60;95.30
23499;DHT22;11926;48.120;11.562;2022-09-27T05:34:01;11.60;95.30
23499;DHT22;11926;48.120;11.562;2022-09-27T05:36:54;11.60;95.30
23499;DHT22;11926;48.120;11.562;2022-09-27T05:39:47;11.60;95.30
23499;DHT22;11926;48.120;11.562;2022-09-27T05:42:37;11.60;95.30
23499;DHT22;11926;48.120;11.562;2022-09-27T05:45:25;11.60;95.30
23499;DHT22;11926;48.120;11.562;2022-09-27T05:48:22;11.60;95.30
23499;DHT22;11926;48.120;11.562;2022-09-27T05:51:20;11.60;95.30
23499;DHT22;11926;48.120;11.562;2022-09-27T05:54:09;11.50;95.20
23499;DHT22;11926;48.120;11.562;2022-09-27T05:56:57;11.60;95.20
23499;DHT22;11926;48.120;11.562;2022-09-27T06:00:09;11.50;95.10
23499;DHT22;11926;48.120;11.562;2022-09-27T06:03:09;11.60;95.20
23499;DHT22;11926;48.120;11.562;2022-09-27T06:06:17;11.60;95.20
23499;DHT22;11926;48.120;11.562;2022-09-27T06:09:14;11.60;95.10
23499;DHT22;11926;48.120;11.562;2022-09-27T06:12:09;11.60;95.40
23499;DHT22;11926;48.120;11.562;2022-09-27T06:15:03;11.60;94.90
23499;DHT22;11926;48.120;11.562;2022-09-27T06:18:02;11.60;94.80
23499;DHT22;11926;48.120;11.562;2022-09-27T06:20:54;11.60;94.80
23499;DHT22;11926;48.120;11.562;2022-09-27T06:23:45;11.50;94.80
23499;DHT22;11926;48.120;11.562;2022-09-27T06:26:52;11.50;94.80
23499;DHT22;11926;48.120;11.562;2022-09-27T06:30:02;11.50;94.70
23499;DHT22;11926;48.120;11.562;2022-09-27T06:33:03;11.50;94.70
23499;DHT22;11926;48.120;11.562;2022-09-27T06:36:13;11.50;94.70
23499;DHT22;11926;48.120;11.562;2022-09-27T06:39:09;11.50;94.50
23499;DHT22;11926;48.120;11.562;2022-09-27T06:42:22;11.50;94.40
23499;DHT22;11926;48.120;11.562;2022-09-27T06:45:17;11.50;94.50
23499;DHT22;11926;48.120;11.562;2022-09-27T06:48:11;11.50;94.40
23499;DHT22;11926;48.120;11.562;2022-09-27T06:51:06;11.50;94.60
23499;DHT22;11926;48.120;11.562;2022-09-27T06:53:59;11.60;94.50
23499;DHT22;11926;48.120;11.562;2022-09-27T06:56:47;11.60;94.30
23499;DHT22;11926;48.120;11.562;2022-09-27T06:59:39;11.70;94.30
23499;DHT22;11926;48.120;11.562;2022-09-27T07:03:01;11.70;94.20
23499;DHT22;11926;48.120;11.562;2022-09-27T07:06:16;11.70;94.20
23499;DHT22;11926;48.120;11.562;2022-09-27T07:09:11;11.80;94.10
23499;DHT22;11926;48.120;11.562;2022-09-27T07:11:59;11.80;94.00
23499;DHT22;11926;48.120;11.562;2022-09-27T07:14:50;11.90;93.90
23499;DHT22;11926;48.120;11.562;2022-09-27T07:17:41;12.00;93.70
23499;DHT22;11926;48.120;11.562;2022-09-27T07:20:33;12.00;93.60
23499;DHT22;11926;48.120;11.562;2022-09-27T07:23:27;12.10;93.50
23499;DHT22;11926;48.120;11.562;2022-09-27T07:26:15;12.10;93.20
23499;DHT22;11926;48.120;11.562;2022-09-27T07:29:03;12.10;93.30
23499;DHT22;11926;48.120;11.562;2022-09-27T07:32:02;12.20;93.30
23499;DHT22;11926;48.120;11.562;2022-09-27T07:34:52;12.20;93.20
23499;DHT22;11926;48.120;11.562;2022-09-27T07:37:43;12.30;93.00
23499;DHT22;11926;48.120;11.562;2022-09-27T07:40:35;12.30;93.10
23499;DHT22;11926;48.120;11.562;2022-09-27T07:43:29;12.40;93.00
23499;DHT22;11926;48.120;11.562;2022-09-27T07:46:16;12.40;93.00
23499;DHT22;11926;48.120;11.562;2022-09-27T07:49:27;12.50;93.30
23499;DHT22;11926;48.120;11.562;2022-09-27T07:52:26;12.60;92.70
23499;DHT22;11926;48.120;11.562;2022-09-27T07:55:33;12.60;92.70
23499;DHT22;11926;48.120;11.562;2022-09-27T07:58:23;12.70;92.60
23499;DHT22;11926;48.120;11.562;2022-09-27T08:01:14;12.70;92.50
23499;DHT22;11926;48.120;11.562;2022-09-27T08:04:02;12.70;92.30
23499;DHT22;11926;48.120;11.562;2022-09-27T08:06:53;12.70;92.10
23499;DHT22;11926;48.120;11.562;2022-09-27T08:09:41;12.70;92.00
23499;DHT22;11926;48.120;11.562;2022-09-27T08:12:30;12.70;91.70
23499;DHT22;11926;48.120;11.562;2022-09-27T08:15:21;12.70;91.80
23499;DHT22;11926;48.120;11.562;2022-09-27T08:18:12;12.60;91.80
23499;DHT22;11926;48.120;11.562;2022-09-27T08:21:13;12.50;91.60
23499;DHT22;11926;48.120;11.562;2022-09-27T08:24:19;12.30;91.60
23499;DHT22;11926;48.120;11.562;2022-09-27T08:27:17;12.10;91.60
23499;DHT22;11926;48.120;11.562;2022-09-27T08:30:11;12.00;91.90
23499;DHT22;11926;48.120;11.562;2022-09-27T08:33:04;11.90;91.90
23499;DHT22;11926;48.120;11.562;2022-09-27T08:35:54;11.80;92.00
23499;DHT22;11926;48.120;11.562;2022-09-27T08:38:47;11.70;92.20
23499;DHT22;11926;48.120;11.562;2022-09-27T08:41:40;11.70;92.30
23499;DHT22;11926;48.120;11.562;2022-09-27T08:44:37;11.50;92.20
23499;DHT22;11926;48.120;11.562;2022-09-27T08:47:36;11.50;92.60
23499;DHT22;11926;48.120;11.562;2022-09-27T08:50:31;11.40;92.50
23499;DHT22;11926;48.120;11.562;2022-09-27T08:53:32;11.50;92.70
23499;DHT22;11926;48.120;11.562;2022-09-27T08:56:25;11.60;93.00
23499;DHT22;11926;48.120;11.562;2022-09-27T08:59:23;11.70;93.00
23499;DHT22;11926;48.120;11.562;2022-09-27T09:02:18;11.80;93.20
23499;DHT22;11926;48.120;11.562;2022-09-27T09:05:16;11.90;93.40
23499;DHT22;11926;48.120;11.562;2022-09-27T09:08:22;12.00;93.10
23499;DHT22;11926;48.120;11.562;2022-09-27T09:11:26;12.10;93.10
23499;DHT22;11926;48.120;11.562;2022-09-27T09:14:49;12.10;93.10
23499;DHT22;11926;48.120;11.562;2022-09-27T09:17:54;12.20;93.30
23499;DHT22;11926;48.120;11.562;2022-09-27T09:21:10;12.30;93.20
23499;DHT22;11926;48.120;11.562;2022-09-27T09:24:18;12.40;93.10
23499;DHT22;11926;48.120;11.562;2022-09-27T09:27:18;12.50;92.90
23499;DHT22;11926;48.120;11.562;2022-09-27T09:30:31;12.50;92.70
23499;DHT22;11926;48.120;11.562;2022-09-27T09:33:25;12.50;92.60
23499;DHT22;11926;48.120;11.562;2022-09-27T09:36:24;12.60;92.60
23499;DHT22;11926;48.120;11.562;2022-09-27T09:39:14;12.70;92.20
23499;DHT22;11926;48.120;11.562;2022-09-27T09:42:08;12.60;92.20
23499;DHT22;11926;48.120;11.562;2022-09-27T09:45:02;12.70;91.90
23499;DHT22;11926;48.120;11.562;2022-09-27T09:47:58;12.70;91.70
23499;DHT22;11926;48.120;11.562;2022-09-27T09:50:55;12.70;91.70
23499;DHT22;11926;48.120;11.562;2022-09-27T09:53:51;12.60;91.50
23499;DHT22;11926;48.120;11.562;2022-09-27T09:56:48;12.70;91.50
23499;DHT22;11926;48.120;11.562;2022-09-27T09:59:42;12.60;91.70
23499;DHT22;11926;48.120;11.562;2022-09-27T10:02:37;12.60;91.30
23499;DHT22;11926;48.120;11.562;2022-09-27T10:05:35;12.60;91.30
23499;DHT22;11926;48.120;11.562;2022-09-27T10:08:26;12.70;91.20
23499;DHT22;11926;48.120;11.562;2022-09-27T10:11:38;12.80;91.00
23499;DHT22;11926;48.120;11.562;2022-09-27T10:14:35;12.80;90.80
23499;DHT22;11926;48.120;11.562;2022-09-27T10:17:26;12.80;90.80
23499;DHT22;11926;48.120;11.562;2022-09-27T10:20:23;12.90;91.00
23499;DHT22;11926;48.120;11.562;2022-09-27T10:23:15;12.90;91.50
23499;DHT22;11926;48.120;11.562;2022-09-27T10:26:26;12.90;90.90
23499;DHT22;11926;48.120;11.562;2022-09-27T10:29:22;12.80;90.70
23499;DHT22;11926;48.120;11.562;2022-09-27T10:32:21;12.70;90.70
23499;DHT22;11926;48.120;11.562;2022-09-27T10:35:35;12.70;90.70
23499;DHT22;11926;48.120;11.562;2022-09-27T10:38:32;12.70;90.80
23499;DHT22;11926;48.120;11.562;2022-09-27T10:41:35;12.70;91.20
23499;DHT22;11926;48.120;11.562;2022-09-27T10:44:30;12.80;90.70
23499;DHT22;11926;48.120;11.562;2022-09-27T10:47:28;12.70;90.80
23499;DHT22;11926;48.120;11.562;2022-09-27T10:50:25;12.70;91.10
23499;DHT22;11926;48.120;11.562;2022-09-27T10:53:44;12.60;91.20
23499;DHT22;11926;48.120;11.562;2022-09-27T10:56:41;12.50;91.40
23499;DHT22;11926;48.120;11.562;2022-09-27T10:59:40;12.50;91.50
23499;DHT22;11926;48.120;11.562;2022-09-27T11:02:33;12.50;91.90
23499;DHT22;11926;48.120;11.562;2022-09-27T11:05:34;12.50;92.30
23499;DHT22;11926;48.120;11.562;2022-09-27T11:08:29;12.70;92.80
23499;DHT22;11926;48.120;11.562;2022-09-27T11:11:27;12.80;92.80
23499;DHT22;11926;48.120;11.562;2022-09-27T11:14:22;12.90;92.80
23499;DHT22;11926;48.120;11.562;2022-09-27T11:17:18;12.90;92.80
23499;DHT22;11926;48.120;11.562;2022-09-27T11:20:35;13.00;92.80
23499;DHT22;11926;48.120;11.562;2022-09-27T11:23:41;13.10;93.30
23499;DHT22;11926;48.120;11.562;2022-09-27T11:26:42;13.30;92.80
23499;DHT22;11926;48.120;11.562;2022-09-27T11:29:42;13.20;92.60
23499;DHT22;11926;48.120;11.562;2022-09-27T11:33:08;13.20;92.30
23499;DHT22;11926;48.120;11.562;2022-09-27T11:36:12;13.10;92.00
23499;DHT22;11926;48.120;11.562;2022-09-27T11:39:11;13.00;91.70
23499;DHT22;11926;48.120;11.562;2022-09-27T11:42:29;12.80;91.70
23499;DHT22;11926;48.120;11.562;2022-09-27T11:45:35;12.70;91.70
23499;DHT22;11926;48.120;11.562;2022-09-27T11:49:06;12.70;91.50
23499;DHT22;11926;48.120;11.562;2022-09-27T11:52:07;12.70;91.80
23499;DHT22;11926;48.120;11.562;2022-09-27T11:55:10;12.80;91.60
23499;DHT22;11926;48.120;11.562;2022-09-27T11:58:09;13.00;91.60
23499;DHT22;11926;48.120;11.562;2022-09-27T12:01:11;13.20;91.40
23499;DHT22;11926;48.120;11.562;2022-09-27T12:04:22;13.20;91.20
23499;DHT22;11926;48.120;11.562;2022-09-27T12:07:26;13.20;90.90
23499;DHT22;11926;48.120;11.562;2022-09-27T12:10:19;13.20;90.80
23499;DHT22;11926;48.120;11.562;2022-09-27T12:13:12;13.20;90.90
23499;DHT22;11926;48.120;11.562;2022-09-27T12:16:04;13.20;91.20
23499;DHT22;11926;48.120;11.562;2022-09-27T12:18:58;13.20;90.80
23499;DHT22;11926;48.120;11.562;2022-09-27T12:22:06;13.20;91.00
23499;DHT22;11926;48.120;11.562;2022-09-27T12:25:03;13.20;91.10
23499;DHT22;11926;48.120;11.562;2022-09-27T12:28:07;13.30;91.00
23499;DHT22;11926;48.120;11.562;2022-09-27T12:31:04;13.30;91.00
23499;DHT22;11926;48.120;11.562;2022-09-27T12:34:18;13.30;90.80
23499;DHT22;11926;48.120;11.562;2022-09-27T12:37:09;13.30;91.00
23499;DHT22;11926;48.120;11.562;2022-09-27T12:40:04;13.20;91.00
23499;DHT22;11926;48.120;11.562;2022-09-27T12:43:01;13.30;91.30
23499;DHT22;11926;48.120;11.562;2022-09-27T12:46:16;13.40;91.50
23499;DHT22;11926;48.120;11.562;2022-09-27T12:49:13;13.60;91.40
23499;DHT22;11926;48.120;11.562;2022-09-27T12:52:08;13.80;91.50
23499;DHT22;11926;48.120;11.562;2022-09-27T12:55:10;13.90;91.40
23499;DHT22;11926;48.120;11.562;2022-09-27T12:58:16;14.00;91.30
23499;DHT22;11926;48.120;11.562;2022-09-27T13:01:16;14.10;90.80
23499;DHT22;11926;48.120;11.562;2022-09-27T13:04:22;14.10;90.50
23499;DHT22;11926;48.120;11.562;2022-09-27T13:07:23;14.10;89.80
23499;DHT22;11926;48.120;11.562;2022-09-27T13:10:33;14.20;89.70
23499;DHT22;11926;48.120;11.562;2022-09-27T13:13:36;14.20;87.40
23499;DHT22;11926;48.120;11.562;2022-09-27T13:16:28;14.10;86.50
23499;DHT22;11926;48.120;11.562;2022-09-27T13:19:40;14.10;86.00
23499;DHT22;11926;48.120;11.562;2022-09-27T13:25:48;14.20;84.70
23499;DHT22;11926;48.120;11.562;2022-09-27T13:28:58;14.30;83.90
23499;DHT22;11926;48.120;11.562;2022-09-27T13:35:20;14.50;82.40
23499;DHT22;11926;48.120;11.562;2022-09-27T13:38:20;14.50;81.50
23499;DHT22;11926;48.120;11.562;2022-09-27T13:41:15;14.50;82.00
23499;DHT22;11926;48.120;11.562;2022-09-27T13:44:14;14.50;81.30
23499;DHT22;11926;48.120;11.562;2022-09-27T13:47:22;14.50;80.70
23499;DHT22;11926;48.120;11.562;2022-09-27T13:50:19;14.40;80.60
23499;DHT22;11926;48.120;11.562;2022-09-27T13:53:21;14.30;81.30
23499;DHT22;11926;48.120;11.562;2022-09-27T14:02:55;14.10;79.80
23499;DHT22;11926;48.120;11.562;2022-09-27T14:05:56;14.10;80.40
23499;DHT22;11926;48.120;11.562;2022-09-27T14:09:01;14.00;80.10
23499;DHT22;11926;48.120;11.562;2022-09-27T14:11:53;14.00;80.20
23499;DHT22;11926;48.120;11.562;2022-09-27T14:14:42;13.90;80.00
23499;DHT22;11926;48.120;11.562;2022-09-27T14:17:36;13.80;80.10
23499;DHT22;11926;48.120;11.562;2022-09-27T14:20:35;13.80;80.30
23499;DHT22;11926;48.120;11.562;2022-09-27T14:23:30;13.70;80.60
23499;DHT22;11926;48.120;11.562;2022-09-27T14:26:25;13.70;80.00
23499;DHT22;11926;48.120;11.562;2022-09-27T14:29:19;13.60;80.50
23499;DHT22;11926;48.120;11.562;2022-09-27T14:32:11;13.70;80.60
23499;DHT22;11926;48.120;11.562;2022-09-27T14:35:22;13.70;80.90
23499;DHT22;11926;48.120;11.562;2022-09-27T14:38:31;13.80;80.10
23499;DHT22;11926;48.120;11.562;2022-09-27T14:41:35;13.80;79.50
23499;DHT22;11926;48.120;11.562;2022-09-27T14:44:21;13.80;79.40
23499;DHT22;11926;48.120;11.562;2022-09-27T14:47:17;13.70;79.00
23499;DHT22;11926;48.120;11.562;2022-09-27T14:50:18;13.70;78.90
23499;DHT22;11926;48.120;11.562;2022-09-27T14:53:20;13.70;79.20
23499;DHT22;11926;48.120;11.562;2022-09-27T14:56:13;13.60;80.30
23499;DHT22;11926;48.120;11.562;2022-09-27T14:59:06;13.60;79.60
23499;DHT22;11926;48.120;11.562;2022-09-27T15:01:57;13.50;79.50
23499;DHT22;11926;48.120;11.562;2022-09-27T15:04:47;13.50;79.70
23499;DHT22;11926;48.120;11.562;2022-09-27T15:07:45;13.40;79.50
23499;DHT22;11926;48.120;11.562;2022-09-27T15:10:36;13.40;79.70
23499;DHT22;11926;48.120;11.562;2022-09-27T15:13:27;13.40;79.80
23499;DHT22;11926;48.120;11.562;2022-09-27T15:16:19;13.30;80.50
23499;DHT22;11926;48.120;11.562;2022-09-27T15:19:14;13.30;80.70
23499;DHT22;11926;48.120;11.562;2022-09-27T15:22:20;13.30;80.80
23499;DHT22;11926;48.120;11.562;2022-09-27T15:28:06;13.20;80.70
23499;DHT22;11926;48.120;11.562;2022-09-27T15:31:01;13.20;80.70
23499;DHT22;11926;48.120;11.562;2022-09-27T15:33:53;13.20;81.00
23499;DHT22;11926;48.120;11.562;2022-09-27T15:36:52;13.20;81.00
23499;DHT22;11926;48.120;11.562;2022-09-27T15:39:41;13.30;81.40
23499;DHT22;11926;48.120;11.562;2022-09-27T15:42:53;13.30;81.70
23499;DHT22;11926;48.120;11.562;2022-09-27T15:45:48;13.40;81.20
23499;DHT22;11926;48.120;11.562;2022-09-27T15:48:37;13.40;81.30
23499;DHT22;11926;48.120;11.562;2022-09-27T15:51:40;13.40;81.10
23499;DHT22;11926;48.120;11.562;2022-09-27T15:54:29;13.40;81.30
23499;DHT22;11926;48.120;11.562;2022-09-27T15:57:19;13.40;81.30
23499;DHT22;11926;48.120;11.562;2022-09-27T16:00:12;13.40;81.60
23499;DHT22;11926;48.120;11.562;2022-09-27T16:03:02;13.40;81.60
23499;DHT22;11926;48.120;11.562;2022-09-27T16:05:52;13.30;81.60
23499;DHT22;11926;48.120;11.562;2022-09-27T16:08:44;13.30;81.80
23499;DHT22;11926;48.120;11.562;2022-09-27T16:11:37;13.30;82.60
23499;DHT22;11926;48.120;11.562;2022-09-27T16:14:27;13.30;83.50
23499;DHT22;11926;48.120;11.562;2022-09-27T16:17:16;13.20;84.30
23499;DHT22;11926;48.120;11.562;2022-09-27T16:20:08;13.20;85.20
23499;DHT22;11926;48.120;11.562;2022-09-27T16:23:01;13.10;85.70
23499;DHT22;11926;48.120;11.562;2022-09-27T16:25:54;13.10;86.50
23499;DHT22;11926;48.120;11.562;2022-09-27T16:28:42;13.00;88.00
23499;DHT22;11926;48.120;11.562;2022-09-27T16:31:30;13.00;87.30
23499;DHT22;11926;48.120;11.562;2022-09-27T16:34:18;13.00;87.40
23499;DHT22;11926;48.120;11.562;2022-09-27T16:37:10;12.90;87.30
23499;DHT22;11926;48.120;11.562;2022-09-27T16:39:58;12.80;87.30
23499;DHT22;11926;48.120;11.562;2022-09-27T16:42:51;12.70;87.30
23499;DHT22;11926;48.120;11.562;2022-09-27T16:45:47;12.60;87.50
23499;DHT22;11926;48.120;11.562;2022-09-27T16:48:35;12.50;87.60
23499;DHT22;11926;48.120;11.562;2022-09-27T16:51:23;12.50;88.00
23499;DHT22;11926;48.120;11.562;2022-09-27T16:54:27;12.40;88.10
23499;DHT22;11926;48.120;11.562;2022-09-27T16:57:15;12.40;88.20
23499;DHT22;11926;48.120;11.562;2022-09-27T17:00:03;12.30;88.00
23499;DHT22;11926;48.120;11.562;2022-09-27T17:02:53;12.30;88.30
23499;DHT22;11926;48.120;11.562;2022-09-27T17:05:44;12.20;88.40
23499;DHT22;11926;48.120;11.562;2022-09-27T17:08:38;12.20;89.60
23499;DHT22;11926;48.120;11.562;2022-09-27T17:11:25;12.20;89.20
23499;DHT22;11926;48.120;11.562;2022-09-27T17:14:17;12.10;89.50
23499;DHT22;11926;48.120;11.562;2022-09-27T17:17:09;12.10;90.00
23499;DHT22;11926;48.120;11.562;2022-09-27T17:19:57;12.10;90.00
23499;DHT22;11926;48.120;11.562;2022-09-27T17:22:44;12.10;90.30
23499;DHT22;11926;48.120;11.562;2022-09-27T17:25:32;12.00;90.30
23499;DHT22;11926;48.120;11.562;2022-09-27T17:28:20;11.90;90.60
23499;DHT22;11926;48.120;11.562;2022-09-27T17:31:13;11.90;90.70
23499;DHT22;11926;48.120;11.562;2022-09-27T17:34:05;11.90;90.80
23499;DHT22;11926;48.120;11.562;2022-09-27T17:36:53;11.80;91.00
23499;DHT22;11926;48.120;11.562;2022-09-27T17:39:41;11.70;91.20
23499;DHT22;11926;48.120;11.562;2022-09-27T17:42:28;11.70;91.20
23499;DHT22;11926;48.120;11.562;2022-09-27T17:45:16;11.70;91.40
23499;DHT22;11926;48.120;11.562;2022-09-27T17:48:07;11.60;91.50
23499;DHT22;11926;48.120;11.562;2022-09-27T17:51:14;11.60;91.50
23499;DHT22;11926;48.120;11.562;2022-09-27T17:54:02;11.50;91.60
23499;DHT22;11926;48.120;11.562;2022-09-27T17:56:51;11.50;91.70
23499;DHT22;11926;48.120;11.562;2022-09-27T17:59:38;11.50;91.80
23499;DHT22;11926;48.120;11.562;2022-09-27T18:02:26;11.40;91.80
23499;DHT22;11926;48.120;11.562;2022-09-27T18:05:15;11.40;92.00
23499;DHT22;11926;48.120;11.562;2022-09-27T18:08:09;11.40;92.10
23499;DHT22;11926;48.120;11.562;2022-09-27T18:10:58;11.40;92.20
23499;DHT22;11926;48.120;11.562;2022-09-27T18:13:49;11.40;92.20
23499;DHT22;11926;48.120;11.562;2022-09-27T18:16:39;11.30;92.10
23499;DHT22;11926;48.120;11.562;2022-09-27T18:19:28;11.30;92.10
23499;DHT22;11926;48.120;11.562;2022-09-27T18:22:17;11.20;92.10
23499;DHT22;11926;48.120;11.562;2022-09-27T18:25:06;11.20;92.20
23499;DHT22;11926;48.120;11.562;2022-09-27T18:27:58;11.20;92.20
23499;DHT22;11926;48.120;11.562;2022-09-27T18:30:49;11.20;92.20
23499;DHT22;11926;48.120;11.562;2022-09-27T18:33:39;11.20;92.20
23499;DHT22;11926;48.120;11.562;2022-09-27T18:36:27;11.10;92.20